Time,TemperatureF,DewpointF,PressureIn,WindDirection,WindDirectionDegrees,WindSpeedMPH,WindSpeedGustMPH,Humidity,HourlyPrecipIn,Conditions,Clouds,dailyrainin,SoftwareType,DateUTC
2013-03-09 10:18:00,50.9,46.6,29.83,NE,45,0.0,0.0,85,0.00,CLR,,0.00,WeatherDisplay:10.37,2013-03-09 16:18:00,
2013-03-09 10:19:00,50.9,46.6,29.83,NE,45,0.0,0.0,85,0.00,CLR,,0.00,WeatherDisplay:10.37,2013-03-09 16:19:00,
2013-03-09 10:24:00,51.1,47.0,29.83,NNW,338,0.0,0.0,86,0.00,CLR,,0.00,WeatherDisplay:10.37,2013-03-09 16:24:00,
2013-03-09 10:29:00,51.3,46.9,29.83,NNW,338,0.0,0.0,85,0.00,CLR,,0.00,WeatherDisplay:10.37,2013-03-09 16:29:00,
2013-03-09 10:34:00,51.6,47.3,29.83,North,0,0.0,0.0,85,0.00,CLR,,0.00,WeatherDisplay:10.37,2013-03-09 16:34:00,
2013-03-09 10:39:00,52.5,48.1,29.83,North,0,0.0,0.0,85,0.04,RA,,0.04,WeatherDisplay:10.37,2013-03-09 16:39:00,
2013-03-09 10:44:00,53.1,49.0,29.83,North,0,0.0,0.0,86,0.04,RA,,0.04,WeatherDisplay:10.37,2013-03-09 16:44:00,
2013-03-09 10:49:00,53.2,49.2,29.80,North,0,0.0,0.0,86,0.04,CLR,,0.04,WeatherDisplay:10.37,2013-03-09 16:49:00,
2013-03-09 10:54:00,53.6,49.2,29.80,North,0,0.0,0.0,85,0.04,CLR,,0.04,WeatherDisplay:10.37,2013-03-09 16:54:00,
2013-03-09 10:59:00,53.6,48.9,29.80,North,0,0.0,0.0,84,0.04,CLR,,0.04,WeatherDisplay:10.37,2013-03-09 16:59:00,
2013-03-09 11:04:00,53.4,49.0,29.80,North,0,0.0,0.0,85,0.08,RA,,0.08,WeatherDisplay:10.37,2013-03-09 17:04:00,
2013-03-09 11:09:00,53.2,48.8,29.80,North,0,0.0,0.0,85,0.08,RA,,0.08,WeatherDisplay:10.37,2013-03-09 17:09:00,
2013-03-09 11:14:00,53.1,49.0,29.80,North,0,0.0,0.0,86,0.08,CLR,,0.08,WeatherDisplay:10.37,2013-03-09 17:14:00,
2013-03-09 11:19:00,53.1,49.3,29.80,North,0,0.0,0.0,87,0.08,CLR,,0.08,WeatherDisplay:10.37,2013-03-09 17:19:00,
2013-03-09 11:24:00,53.1,49.3,29.80,North,0,0.0,0.0,87,0.08,CLR,,0.08,WeatherDisplay:10.37,2013-03-09 17:24:00,
2013-03-09 11:29:00,52.9,49.4,29.80,SW,225,0.0,0.0,88,0.08,CLR,,0.08,WeatherDisplay:10.37,2013-03-09 17:29:00,
2013-03-09 11:34:00,52.5,49.4,29.80,NW,315,0.0,0.0,89,0.08,CLR,,0.08,WeatherDisplay:10.37,2013-03-09 17:34:00,
2013-03-09 11:39:00,52.5,49.4,29.80,NW,315,0.0,0.0,89,0.04,CLR,,0.08,WeatherDisplay:10.37,2013-03-09 17:39:00,
2013-03-09 11:44:00,52.5,49.7,29.80,NW,315,0.0,0.0,90,0.04,CLR,,0.08,WeatherDisplay:10.37,2013-03-09 17:44:00,
2013-03-09 11:49:00,52.5,50.0,29.80,NW,315,0.0,0.0,91,0.04,CLR,,0.08,WeatherDisplay:10.37,2013-03-09 17:49:00,
2013-03-09 11:54:00,52.5,50.0,29.80,North,0,0.0,0.0,91,0.04,CLR,,0.08,WeatherDisplay:10.37,2013-03-09 17:54:00,
2013-03-09 11:59:00,52.3,49.8,29.80,North,0,0.0,0.0,91,0.04,CLR,,0.08,WeatherDisplay:10.37,2013-03-09 17:59:00,
2013-03-09 12:04:00,52.5,50.3,29.80,North,0,0.0,0.0,92,0.00,CLR,,0.08,WeatherDisplay:10.37,2013-03-09 18:04:00,
2013-03-09 12:09:00,52.5,50.3,29.80,North,0,0.0,0.0,92,0.00,CLR,,0.08,WeatherDisplay:10.37,2013-03-09 18:09:00,
2013-03-09 12:14:00,52.5,50.3,29.80,North,0,0.0,0.0,92,0.00,CLR,,0.08,WeatherDisplay:10.37,2013-03-09 18:14:00,
2013-03-09 12:19:00,52.5,50.3,29.80,North,0,0.0,0.0,92,0.00,CLR,,0.08,WeatherDisplay:10.37,2013-03-09 18:19:00,
2013-03-09 12:24:00,52.3,50.1,29.80,North,0,0.0,0.0,92,0.00,CLR,,0.08,WeatherDisplay:10.37,2013-03-09 18:24:00,
2013-03-09 12:29:00,52.3,50.1,29.80,North,0,0.0,0.0,92,0.00,CLR,,0.08,WeatherDisplay:10.37,2013-03-09 18:29:00,
2013-03-09 12:34:00,52.3,50.1,29.77,North,0,0.0,0.0,92,0.00,CLR,,0.08,WeatherDisplay:10.37,2013-03-09 18:34:00,
2013-03-09 12:39:00,52.3,50.1,29.77,North,0,0.0,0.0,92,0.00,CLR,,0.08,WeatherDisplay:10.37,2013-03-09 18:39:00,
2013-03-09 12:44:00,52.3,50.1,29.77,North,0,0.0,0.0,92,0.00,CLR,,0.08,WeatherDisplay:10.37,2013-03-09 18:44:00,
2013-03-09 12:49:00,52.2,49.9,29.77,SSE,158,0.0,0.0,92,0.00,CLR,,0.08,WeatherDisplay:10.37,2013-03-09 18:49:00,
2013-03-09 12:54:00,52.2,49.9,29.77,WSW,248,0.0,0.0,92,0.00,CLR,,0.08,WeatherDisplay:10.37,2013-03-09 18:54:00,
2013-03-09 12:59:00,52.0,50.0,29.77,SE,135,0.0,0.0,93,0.00,CLR,,0.08,WeatherDisplay:10.37,2013-03-09 18:59:00,
2013-03-09 13:04:00,52.0,50.0,29.77,SE,135,0.0,0.0,93,0.00,CLR,,0.08,WeatherDisplay:10.37,2013-03-09 19:04:00,
2013-03-09 13:09:00,52.0,50.0,29.77,SE,135,0.0,0.0,93,0.00,CLR,,0.08,WeatherDisplay:10.37,2013-03-09 19:09:00,
2013-03-09 13:14:00,52.0,50.0,29.77,SE,135,0.0,0.0,93,0.00,CLR,,0.08,WeatherDisplay:10.37,2013-03-09 19:14:00,
2013-03-09 13:19:00,52.2,50.5,29.77,SE,135,0.0,0.0,94,0.00,CLR,,0.08,WeatherDisplay:10.37,2013-03-09 19:19:00,
2013-03-09 13:24:00,52.2,50.2,29.77,SE,135,0.0,0.0,93,0.00,CLR,,0.08,WeatherDisplay:10.37,2013-03-09 19:24:00,
2013-03-09 13:29:00,52.3,50.7,29.77,SE,135,0.0,0.0,94,0.00,CLR,,0.08,WeatherDisplay:10.37,2013-03-09 19:29:00,
2013-03-09 13:34:00,52.5,50.8,29.77,SE,135,0.0,0.0,94,0.00,CLR,,0.08,WeatherDisplay:10.37,2013-03-09 19:34:00,
2013-03-09 13:39:00,52.5,50.8,29.77,SE,135,0.0,0.0,94,0.00,CLR,,0.08,WeatherDisplay:10.37,2013-03-09 19:39:00,
2013-03-09 13:44:00,52.3,51.0,29.76,SE,135,0.0,0.0,95,0.00,CLR,,0.08,WeatherDisplay:10.37,2013-03-09 19:44:00,
2013-03-09 13:49:00,52.3,51.0,29.74,SE,135,0.0,0.0,95,0.00,CLR,,0.08,WeatherDisplay:10.37,2013-03-09 19:49:00,
2013-03-09 13:54:00,52.3,51.0,29.74,SE,135,0.0,1.0,95,0.00,CLR,,0.08,WeatherDisplay:10.37,2013-03-09 19:54:00,
2013-03-09 13:59:00,52.3,51.0,29.74,SE,135,0.0,0.0,95,0.00,CLR,,0.08,WeatherDisplay:10.37,2013-03-09 19:59:00,
2013-03-09 14:04:00,52.3,51.0,29.74,SE,135,0.0,0.0,95,0.00,CLR,,0.08,WeatherDisplay:10.37,2013-03-09 20:04:00,
2013-03-09 14:09:00,52.3,51.0,29.74,SE,135,0.0,0.0,95,0.00,CLR,,0.08,WeatherDisplay:10.37,2013-03-09 20:09:00,
2013-03-09 14:14:00,52.3,51.0,29.74,SE,135,0.0,0.0,95,0.00,CLR,,0.08,WeatherDisplay:10.37,2013-03-09 20:14:00,
2013-03-09 14:19:00,52.5,51.1,29.74,SE,135,0.0,0.0,95,0.00,CLR,,0.08,WeatherDisplay:10.37,2013-03-09 20:19:00,
2013-03-09 14:24:00,52.5,51.1,29.74,SE,135,0.0,0.0,95,0.00,CLR,,0.08,WeatherDisplay:10.37,2013-03-09 20:24:00,
2013-03-09 14:29:00,53.1,52.0,29.74,SE,135,0.0,0.0,96,0.00,CLR,,0.08,WeatherDisplay:10.37,2013-03-09 20:29:00,
2013-03-09 14:34:00,53.2,52.1,29.74,SE,135,0.0,0.0,96,0.00,CLR,,0.08,WeatherDisplay:10.37,2013-03-09 20:34:00,
2013-03-09 14:39:00,53.4,52.3,29.74,SE,135,0.0,0.0,96,0.00,CLR,,0.08,WeatherDisplay:10.37,2013-03-09 20:39:00,
2013-03-09 14:44:00,53.6,52.5,29.73,SE,135,0.0,0.0,96,0.00,CLR,,0.08,WeatherDisplay:10.37,2013-03-09 20:44:00,
2013-03-09 14:49:00,53.6,52.5,29.71,SE,135,0.0,0.0,96,0.00,CLR,,0.08,WeatherDisplay:10.37,2013-03-09 20:49:00,
2013-03-09 14:54:00,53.6,52.5,29.71,SE,135,0.0,0.0,96,0.00,CLR,,0.08,WeatherDisplay:10.37,2013-03-09 20:54:00,
2013-03-09 14:59:00,53.4,52.6,29.71,SE,135,0.0,0.0,97,0.00,CLR,,0.08,WeatherDisplay:10.37,2013-03-09 20:59:00,
2013-03-09 15:04:00,53.4,52.6,29.71,SE,135,0.0,0.0,97,0.00,CLR,,0.08,WeatherDisplay:10.37,2013-03-09 21:04:00,
2013-03-09 15:09:00,53.4,52.6,29.71,SE,135,0.0,0.0,97,0.00,CLR,,0.08,WeatherDisplay:10.37,2013-03-09 21:09:00,
2013-03-09 15:14:00,53.4,52.3,29.71,SE,135,0.0,0.0,96,0.00,CLR,,0.08,WeatherDisplay:10.37,2013-03-09 21:14:00,
2013-03-09 15:19:00,53.4,52.3,29.74,SE,135,0.0,0.0,96,0.00,CLR,,0.08,WeatherDisplay:10.37,2013-03-09 21:19:00,
2013-03-09 15:24:00,53.4,52.6,29.74,SE,135,0.0,0.0,97,0.00,CLR,,0.08,WeatherDisplay:10.37,2013-03-09 21:24:00,
2013-03-09 15:29:00,53.4,52.6,29.74,SE,135,0.0,0.0,97,0.00,CLR,,0.08,WeatherDisplay:10.37,2013-03-09 21:29:00,
2013-03-09 15:34:00,53.4,52.6,29.74,SE,135,0.0,0.0,97,0.00,CLR,,0.08,WeatherDisplay:10.37,2013-03-09 21:34:00,
2013-03-09 15:39:00,53.4,52.6,29.74,SE,135,0.0,0.0,97,0.00,CLR,,0.08,WeatherDisplay:10.37,2013-03-09 21:39:00,
2013-03-09 15:44:00,53.2,52.4,29.74,SE,135,0.0,0.0,97,0.00,CLR,,0.08,WeatherDisplay:10.37,2013-03-09 21:44:00,
2013-03-09 15:49:00,53.2,52.4,29.74,SE,135,0.0,0.0,97,0.00,CLR,,0.08,WeatherDisplay:10.37,2013-03-09 21:49:00,
2013-03-09 15:54:00,53.1,52.2,29.74,South,180,0.0,0.0,97,0.00,CLR,,0.08,WeatherDisplay:10.37,2013-03-09 21:54:00,
2013-03-09 15:59:00,53.1,52.2,29.74,South,180,0.0,0.0,97,0.00,CLR,,0.08,WeatherDisplay:10.37,2013-03-09 21:59:00,
2013-03-09 16:04:00,53.1,52.2,29.74,South,180,0.0,0.0,97,0.00,CLR,,0.08,WeatherDisplay:10.37,2013-03-09 22:04:00,
2013-03-09 16:09:00,53.1,52.2,29.74,SSW,197,0.0,0.0,97,0.00,CLR,,0.08,WeatherDisplay:10.37,2013-03-09 22:09:00,
2013-03-09 16:14:00,52.9,52.1,29.74,WSW,248,0.0,1.0,97,0.00,CLR,,0.08,WeatherDisplay:10.37,2013-03-09 22:14:00,
2013-03-09 16:19:00,52.9,52.3,29.74,WNW,295,0.0,0.0,98,0.00,CLR,,0.08,WeatherDisplay:10.37,2013-03-09 22:19:00,
2013-03-09 16:24:00,52.9,52.3,29.74,ENE,68,1.2,0.0,98,0.00,CLR,,0.08,WeatherDisplay:10.37,2013-03-09 22:24:00,
2013-03-09 16:29:00,52.9,52.3,29.73,NE,56,0.0,0.0,98,0.00,CLR,,0.08,WeatherDisplay:10.37,2013-03-09 22:29:00,
2013-03-09 16:34:00,52.9,52.3,29.71,ENE,68,0.0,0.0,98,0.00,CLR,,0.08,WeatherDisplay:10.37,2013-03-09 22:34:00,
2013-03-09 16:39:00,52.7,52.2,29.71,ENE,68,0.0,0.0,98,0.00,CLR,,0.08,WeatherDisplay:10.37,2013-03-09 22:39:00,
2013-03-09 16:44:00,52.8,52.2,29.71,ENE,68,0.0,0.0,98,0.00,CLR,,0.08,WeatherDisplay:10.37,2013-03-09 22:44:00,
2013-03-09 16:49:00,52.9,52.3,29.71,ENE,68,0.0,0.0,98,0.00,CLR,,0.08,WeatherDisplay:10.37,2013-03-09 22:49:00,
2013-03-09 16:54:00,52.9,52.3,29.71,ENE,68,0.0,0.0,98,0.00,CLR,,0.08,WeatherDisplay:10.37,2013-03-09 22:54:00,
2013-03-09 16:59:00,52.9,52.3,29.71,ENE,68,0.0,0.0,98,0.00,CLR,,0.08,WeatherDisplay:10.37,2013-03-09 22:59:00,
2013-03-09 17:04:00,52.9,52.3,29.71,ENE,68,1.2,0.0,98,0.00,CLR,,0.08,WeatherDisplay:10.37,2013-03-09 23:04:00,
2013-03-09 17:09:00,52.9,52.3,29.71,ENE,68,0.0,0.0,98,0.59,RA,,0.67,WeatherDisplay:10.37,2013-03-09 23:09:00,
2013-03-09 17:14:00,52.8,52.3,29.71,ENE,68,0.0,0.0,98,0.00,RA,,0.67,WeatherDisplay:10.37,2013-03-09 23:14:00,
2013-03-09 17:19:00,52.7,52.2,29.71,ENE,68,0.0,0.0,98,0.59,CLR,,0.67,WeatherDisplay:10.37,2013-03-09 23:19:00,
2013-03-09 17:24:00,52.7,52.2,29.71,ENE,68,0.0,0.0,98,0.00,CLR,,0.67,WeatherDisplay:10.37,2013-03-09 23:24:00,
2013-03-09 17:29:00,52.7,52.2,29.71,ENE,68,0.0,1.0,98,0.00,CLR,,0.67,WeatherDisplay:10.37,2013-03-09 23:29:00,
2013-03-09 17:34:00,52.7,52.2,29.71,NE,45,0.0,0.0,98,0.59,CLR,,0.67,WeatherDisplay:10.37,2013-03-09 23:34:00,
2013-03-09 17:39:00,52.7,52.2,29.71,NE,48,0.0,0.0,98,0.00,CLR,,0.67,WeatherDisplay:10.37,2013-03-09 23:39:00,
2013-03-09 17:44:00,52.7,52.2,29.71,NE,45,0.0,0.0,98,0.59,CLR,,0.67,WeatherDisplay:10.37,2013-03-09 23:44:00,
2013-03-09 17:49:00,52.5,52.0,29.71,NE,45,0.0,0.0,98,0.59,CLR,,0.67,WeatherDisplay:10.37,2013-03-09 23:49:00,
2013-03-09 17:54:00,52.5,52.0,29.71,NE,45,0.0,0.0,98,0.00,CLR,,0.67,WeatherDisplay:10.37,2013-03-09 23:54:00,
2013-03-09 17:59:00,52.5,52.0,29.68,NE,45,0.0,0.0,98,0.59,CLR,,0.67,WeatherDisplay:10.37,2013-03-09 23:59:00,
2013-03-09 18:04:00,52.5,52.0,29.68,NE,45,1.0,3.0,98,0.00,CLR,,0.67,WeatherDisplay:10.37,2013-03-10 00:04:00,
2013-03-09 18:09:00,52.5,52.0,29.68,NE,45,0.0,2.0,98,0.00,CLR,,0.67,WeatherDisplay:10.37,2013-03-10 00:09:00,
2013-03-09 18:14:00,52.5,52.0,29.71,NE,45,1.2,0.0,98,0.00,CLR,,0.67,WeatherDisplay:10.37,2013-03-10 00:14:00,
2013-03-09 18:19:00,52.5,52.0,29.71,ENE,75,0.0,1.0,98,0.00,CLR,,0.67,WeatherDisplay:10.37,2013-03-10 00:19:00,
2013-03-09 18:24:00,52.5,52.0,29.71,SE,130,0.0,0.0,98,0.00,CLR,,0.67,WeatherDisplay:10.37,2013-03-10 00:24:00,
2013-03-09 18:29:00,52.7,52.2,29.71,SE,135,0.0,0.0,98,0.00,CLR,,0.67,WeatherDisplay:10.37,2013-03-10 00:29:00,
2013-03-09 18:34:00,52.5,52.0,29.71,SE,127,0.0,1.0,98,0.00,CLR,,0.67,WeatherDisplay:10.37,2013-03-10 00:34:00,
2013-03-09 18:39:00,52.5,52.0,29.71,East,90,3.5,3.5,98,0.00,CLR,,0.67,WeatherDisplay:10.37,2013-03-10 00:39:00,
2013-03-09 18:44:00,52.5,52.0,29.68,East,90,0.0,0.0,98,0.00,CLR,,0.67,WeatherDisplay:10.37,2013-03-10 00:44:00,
2013-03-09 18:49:00,52.5,52.0,29.68,East,90,0.0,0.0,98,0.00,CLR,,0.67,WeatherDisplay:10.37,2013-03-10 00:49:00,
2013-03-09 18:54:00,52.5,52.0,29.68,ESE,113,0.0,1.0,98,0.00,CLR,,0.67,WeatherDisplay:10.37,2013-03-10 00:54:00,
2013-03-09 18:59:00,52.7,52.2,29.68,South,180,1.2,0.0,98,0.00,CLR,,0.67,WeatherDisplay:10.37,2013-03-10 00:59:00,
2013-03-09 19:04:00,52.7,52.2,29.68,SSE,155,0.0,1.0,98,0.00,CLR,,0.67,WeatherDisplay:10.37,2013-03-10 01:04:00,
2013-03-09 19:09:00,52.7,52.2,29.68,South,180,1.2,0.0,98,0.00,CLR,,0.67,WeatherDisplay:10.37,2013-03-10 01:09:00,
2013-03-09 19:14:00,52.9,52.3,29.68,South,174,0.0,0.0,98,0.00,CLR,,0.67,WeatherDisplay:10.37,2013-03-10 01:14:00,
2013-03-09 19:19:00,52.9,52.3,29.68,South,180,1.2,0.0,98,0.00,CLR,,0.67,WeatherDisplay:10.37,2013-03-10 01:19:00,
2013-03-09 19:24:00,53.1,52.5,29.68,South,180,1.2,1.2,98,0.00,CLR,,0.67,WeatherDisplay:10.37,2013-03-10 01:24:00,
2013-03-09 19:29:00,53.2,52.7,29.68,SE,135,2.3,0.0,98,0.00,CLR,,0.67,WeatherDisplay:10.37,2013-03-10 01:29:00,
2013-03-09 19:34:00,53.4,52.8,29.68,East,100,1.0,4.0,98,0.00,CLR,,0.67,WeatherDisplay:10.37,2013-03-10 01:34:00,
2013-03-09 19:39:00,53.6,53.0,29.68,South,180,1.2,0.0,98,0.00,CLR,,0.67,WeatherDisplay:10.37,2013-03-10 01:39:00,
2013-03-09 19:44:00,53.8,53.2,29.68,East,90,0.0,0.0,98,0.00,CLR,,0.67,WeatherDisplay:10.37,2013-03-10 01:44:00,
2013-03-09 19:49:00,53.8,53.2,29.68,East,90,0.0,0.0,98,0.00,CLR,,0.67,WeatherDisplay:10.37,2013-03-10 01:49:00,
2013-03-09 19:54:00,53.8,53.2,29.68,East,90,0.0,0.0,98,0.00,CLR,,0.67,WeatherDisplay:10.37,2013-03-10 01:54:00,
2013-03-09 19:59:00,54.1,53.6,29.68,East,90,0.0,2.0,98,0.00,CLR,,0.67,WeatherDisplay:10.37,2013-03-10 01:59:00,
2013-03-09 20:04:00,54.3,53.7,29.68,East,90,1.0,3.0,98,0.00,CLR,,0.67,WeatherDisplay:10.37,2013-03-10 02:04:00,
2013-03-09 20:09:00,54.3,53.8,29.68,SSE,158,0.0,0.0,98,0.00,CLR,,0.67,WeatherDisplay:10.37,2013-03-10 02:09:00,
2013-03-09 20:14:00,54.5,53.9,29.68,SSW,202,0.0,1.0,98,0.00,CLR,,0.67,WeatherDisplay:10.37,2013-03-10 02:14:00,
2013-03-09 20:19:00,55.2,54.7,29.71,SW,225,2.6,2.6,98,0.00,CLR,,0.67,WeatherDisplay:10.37,2013-03-10 02:19:00,
2013-03-09 20:24:00,55.5,54.9,29.71,SSE,155,1.0,3.0,98,0.00,CLR,,0.67,WeatherDisplay:10.37,2013-03-10 02:24:00,
2013-03-09 20:29:00,55.8,55.2,29.70,SSE,166,1.0,5.0,98,0.00,CLR,,0.67,WeatherDisplay:10.37,2013-03-10 02:29:00,
2013-03-09 20:34:00,56.1,55.6,29.68,South,180,4.6,4.6,98,0.00,CLR,,0.67,WeatherDisplay:10.37,2013-03-10 02:34:00,
2013-03-09 20:39:00,56.1,55.6,29.68,South,173,0.0,1.0,98,0.00,CLR,,0.67,WeatherDisplay:10.37,2013-03-10 02:39:00,
2013-03-09 20:44:00,56.3,55.7,29.68,SE,141,0.0,2.0,98,0.00,CLR,,0.67,WeatherDisplay:10.37,2013-03-10 02:44:00,
2013-03-09 20:49:00,56.5,55.9,29.65,SE,135,2.3,2.3,98,0.00,CLR,,0.67,WeatherDisplay:10.37,2013-03-10 02:49:00,
2013-03-09 20:54:00,56.7,56.1,29.65,SE,133,1.0,6.0,98,0.00,CLR,,0.67,WeatherDisplay:10.37,2013-03-10 02:54:00,
2013-03-09 20:59:00,56.8,56.3,29.65,ESE,115,0.0,7.0,98,0.00,CLR,,0.67,WeatherDisplay:10.37,2013-03-10 02:59:00,
2013-03-09 21:04:00,56.8,56.3,29.65,South,180,3.5,0.0,98,0.00,CLR,,0.67,WeatherDisplay:10.37,2013-03-10 03:04:00,
2013-03-09 21:09:00,56.8,56.3,29.65,SE,146,1.0,5.0,98,0.00,RA,,0.84,WeatherDisplay:10.37,2013-03-10 03:09:00,
2013-03-09 21:14:00,56.8,56.3,29.65,SE,136,1.0,5.0,98,0.00,RA,,0.84,WeatherDisplay:10.37,2013-03-10 03:14:00,
2013-03-09 21:19:00,56.8,56.3,29.62,SSE,154,0.0,3.0,98,0.00,CLR,,0.84,WeatherDisplay:10.37,2013-03-10 03:19:00,
2013-03-09 21:24:00,56.8,56.3,29.62,ESE,112,4.6,4.6,98,0.17,CLR,,0.84,WeatherDisplay:10.37,2013-03-10 03:24:00,
2013-03-09 21:29:00,56.8,56.3,29.65,East,90,2.3,2.3,98,0.17,CLR,,0.84,WeatherDisplay:10.37,2013-03-10 03:29:00,
2013-03-09 21:34:00,56.8,56.3,29.65,SE,139,1.0,3.0,98,0.00,CLR,,0.84,WeatherDisplay:10.37,2013-03-10 03:34:00,
2013-03-09 21:39:00,56.8,56.3,29.65,SSE,149,1.0,3.0,98,0.00,CLR,,0.84,WeatherDisplay:10.37,2013-03-10 03:39:00,
2013-03-09 21:44:00,56.8,56.3,29.65,SE,135,5.6,5.6,98,0.17,CLR,,0.84,WeatherDisplay:10.37,2013-03-10 03:44:00,
2013-03-09 21:49:00,56.8,56.3,29.65,East,100,0.0,3.0,98,0.00,CLR,,0.84,WeatherDisplay:10.37,2013-03-10 03:49:00,
2013-03-09 21:54:00,56.7,56.1,29.65,SE,130,0.0,0.0,98,0.00,CLR,,0.84,WeatherDisplay:10.37,2013-03-10 03:54:00,
2013-03-09 21:59:00,56.7,56.1,29.65,East,90,0.0,0.0,98,0.17,CLR,,0.84,WeatherDisplay:10.37,2013-03-10 03:59:00,
2013-03-09 22:04:00,56.6,56.0,29.65,East,90,0.0,0.0,98,0.00,CLR,,0.84,WeatherDisplay:10.37,2013-03-10 04:04:00,
2013-03-09 22:09:00,56.3,55.7,29.65,East,90,1.4,0.0,98,0.00,CLR,,0.84,WeatherDisplay:10.37,2013-03-10 04:09:00,
2013-03-09 22:14:00,56.3,55.7,29.65,East,90,1.2,0.0,98,0.00,CLR,,0.84,WeatherDisplay:10.37,2013-03-10 04:14:00,
2013-03-09 22:19:00,56.3,55.7,29.68,East,90,0.0,0.0,98,0.00,CLR,,0.84,WeatherDisplay:10.37,2013-03-10 04:19:00,
2013-03-09 22:24:00,56.3,55.7,29.68,South,180,0.0,0.0,98,0.00,CLR,,0.93,WeatherDisplay:10.37,2013-03-10 04:24:00,
2013-03-09 22:29:00,56.1,55.6,29.68,South,180,0.0,0.0,98,0.09,RA,,0.93,WeatherDisplay:10.37,2013-03-10 04:29:00,
2013-03-09 22:34:00,56.1,55.6,29.68,South,180,0.0,0.0,98,0.09,,,0.93,WeatherDisplay:10.37,2013-03-10 04:34:00,
2013-03-09 22:39:00,55.9,55.4,29.68,South,186,0.0,0.0,98,0.00,CLR,,0.93,WeatherDisplay:10.37,2013-03-10 04:39:00,
2013-03-09 22:44:00,55.9,55.4,29.68,SE,139,0.0,3.0,98,0.00,CLR,,0.93,WeatherDisplay:10.37,2013-03-10 04:44:00,
2013-03-09 22:49:00,55.8,55.2,29.68,East,90,0.0,0.0,98,0.09,CLR,,0.93,WeatherDisplay:10.37,2013-03-10 04:49:00,
2013-03-09 22:54:00,55.6,55.0,29.68,South,180,3.5,3.5,98,0.09,CLR,,0.93,WeatherDisplay:10.37,2013-03-10 04:54:00,
2013-03-09 22:59:00,55.4,54.9,29.68,SSE,162,0.0,0.0,98,0.00,CLR,,0.93,WeatherDisplay:10.37,2013-03-10 04:59:00,
2013-03-09 23:00:00,55.4,54.8,29.68,South,180,0.0,0.0,98,0.09,CLR,,0.93,WeatherDisplay:10.37,2013-03-10 05:00:00,
2013-03-09 23:05:00,55.2,54.7,29.68,SE,135,1.2,0.0,98,0.09,CLR,,0.93,WeatherDisplay:10.37,2013-03-10 05:05:00,
2013-03-09 23:10:00,54.9,54.3,29.68,South,180,1.2,0.0,98,0.09,CLR,,0.93,WeatherDisplay:10.37,2013-03-10 05:10:00,
2013-03-09 23:15:00,54.7,54.1,29.68,South,180,0.0,0.0,98,0.09,CLR,,0.93,WeatherDisplay:10.37,2013-03-10 05:15:00,
2013-03-09 23:20:00,54.5,53.9,29.65,SSE,158,0.0,0.0,98,0.09,CLR,,0.93,WeatherDisplay:10.37,2013-03-10 05:20:00,
2013-03-09 23:25:00,54.3,53.8,29.65,SSE,158,0.0,0.0,98,0.00,CLR,,0.93,WeatherDisplay:10.37,2013-03-10 05:25:00,
2013-03-09 23:30:00,54.0,53.4,29.65,West,270,0.0,0.0,98,0.00,CLR,,0.93,WeatherDisplay:10.37,2013-03-10 05:30:00,
2013-03-09 23:35:00,53.8,53.2,29.65,NW,315,0.0,0.0,98,0.00,CLR,,0.93,WeatherDisplay:10.37,2013-03-10 05:35:00,
2013-03-09 23:40:00,53.2,52.7,29.65,NW,315,0.0,0.0,98,0.00,CLR,,0.93,WeatherDisplay:10.37,2013-03-10 05:40:00,
2013-03-09 23:45:00,52.9,52.3,29.65,NE,45,0.0,0.0,98,0.00,CLR,,0.93,WeatherDisplay:10.37,2013-03-10 05:45:00,